sensor_id;sensor_type;location;lat;lon;timestamp;P1;durP1;ratioP1;P2;durP2;ratioP2
66546;SDS011;53400;50.364;14.874;2023-02-11T00:01:17;48.17;;;22.05;;
66546;SDS011;53400;50.364;14.874;2023-02-11T00:03:45;47.60;;;23.73;;
66546;SDS011;53400;50.364;14.874;2023-02-11T00:06:11;49.72;;;24.10;;
66546;SDS011;53400;50.364;14.874;2023-02-11T00:08:37;51.53;;;25.10;;
66546;SDS011;53400;50.364;14.874;2023-02-11T00:11:03;48.25;;;24.42;;
66546;SDS011;53400;50.364;14.874;2023-02-11T00:13:31;51.55;;;24.70;;
66546;SDS011;53400;50.364;14.874;2023-02-11T00:15:57;49.88;;;24.02;;
66546;SDS011;53400;50.364;14.874;2023-02-11T00:18:23;46.03;;;23.92;;
66546;SDS011;53400;50.364;14.874;2023-02-11T00:20:50;50.22;;;24.52;;
66546;SDS011;53400;50.364;14.874;2023-02-11T00:23:16;44.05;;;22.70;;
66546;SDS011;53400;50.364;14.874;2023-02-11T00:25:42;44.53;;;21.98;;
66546;SDS011;53400;50.364;14.874;2023-02-11T00:28:10;47.50;;;22.80;;
66546;SDS011;53400;50.364;14.874;2023-02-11T00:30:37;43.65;;;22.45;;
66546;SDS011;53400;50.364;14.874;2023-02-11T00:33:03;45.90;;;22.08;;
66546;SDS011;53400;50.364;14.874;2023-02-11T00:35:29;47.35;;;22.02;;
66546;SDS011;53400;50.364;14.874;2023-02-11T00:37:55;50.50;;;23.45;;
66546;SDS011;53400;50.364;14.874;2023-02-11T00:40:21;44.10;;;22.33;;
66546;SDS011;53400;50.364;14.874;2023-02-11T00:42:47;46.13;;;20.92;;
66546;SDS011;53400;50.364;14.874;2023-02-11T00:45:13;42.88;;;21.92;;
66546;SDS011;53400;50.364;14.874;2023-02-11T00:47:40;39.92;;;20.52;;
66546;SDS011;53400;50.364;14.874;2023-02-11T00:50:07;47.38;;;23.30;;
66546;SDS011;53400;50.364;14.874;2023-02-11T00:52:33;46.67;;;20.75;;
66546;SDS011;53400;50.364;14.874;2023-02-11T00:54:59;45.28;;;21.65;;
66546;SDS011;53400;50.364;14.874;2023-02-11T00:57:25;44.97;;;22.60;;
66546;SDS011;53400;50.364;14.874;2023-02-11T00:59:51;43.40;;;20.33;;
66546;SDS011;53400;50.364;14.874;2023-02-11T01:02:16;41.35;;;20.95;;
66546;SDS011;53400;50.364;14.874;2023-02-11T01:04:44;41.92;;;21.63;;
66546;SDS011;53400;50.364;14.874;2023-02-11T01:07:09;53.00;;;24.33;;
66546;SDS011;53400;50.364;14.874;2023-02-11T01:09:36;51.63;;;23.77;;
66546;SDS011;53400;50.364;14.874;2023-02-11T01:12:02;47.38;;;22.63;;
66546;SDS011;53400;50.364;14.874;2023-02-11T01:14:28;44.90;;;22.48;;
66546;SDS011;53400;50.364;14.874;2023-02-11T01:16:54;44.05;;;21.77;;
66546;SDS011;53400;50.364;14.874;2023-02-11T01:19:20;47.65;;;22.40;;
66546;SDS011;53400;50.364;14.874;2023-02-11T01:21:47;44.38;;;21.48;;
66546;SDS011;53400;50.364;14.874;2023-02-11T01:24:13;43.45;;;21.23;;
66546;SDS011;53400;50.364;14.874;2023-02-11T01:26:39;42.22;;;21.38;;
66546;SDS011;53400;50.364;14.874;2023-02-11T01:29:05;43.95;;;20.80;;
66546;SDS011;53400;50.364;14.874;2023-02-11T01:31:31;45.78;;;21.75;;
66546;SDS011;53400;50.364;14.874;2023-02-11T01:33:57;42.50;;;21.50;;
66546;SDS011;53400;50.364;14.874;2023-02-11T01:36:23;40.65;;;21.15;;
66546;SDS011;53400;50.364;14.874;2023-02-11T01:38:51;41.70;;;20.15;;
66546;SDS011;53400;50.364;14.874;2023-02-11T01:41:17;43.95;;;20.92;;
66546;SDS011;53400;50.364;14.874;2023-02-11T01:43:44;40.55;;;19.25;;
66546;SDS011;53400;50.364;14.874;2023-02-11T01:46:13;39.42;;;20.33;;
66546;SDS011;53400;50.364;14.874;2023-02-11T01:48:48;41.28;;;18.98;;
66546;SDS011;53400;50.364;14.874;2023-02-11T01:51:17;41.97;;;19.25;;
66546;SDS011;53400;50.364;14.874;2023-02-11T01:53:47;46.08;;;21.38;;
66546;SDS011;53400;50.364;14.874;2023-02-11T01:56:34;39.35;;;20.42;;
66546;SDS011;53400;50.364;14.874;2023-02-11T01:59:23;43.45;;;20.98;;
66546;SDS011;53400;50.364;14.874;2023-02-11T02:01:55;40.87;;;20.60;;
66546;SDS011;53400;50.364;14.874;2023-02-11T02:04:24;37.60;;;19.10;;
66546;SDS011;53400;50.364;14.874;2023-02-11T02:06:58;44.22;;;20.35;;
66546;SDS011;53400;50.364;14.874;2023-02-11T02:09:27;42.45;;;20.50;;
66546;SDS011;53400;50.364;14.874;2023-02-11T02:11:57;41.88;;;20.58;;
66546;SDS011;53400;50.364;14.874;2023-02-11T02:14:23;44.97;;;21.80;;
66546;SDS011;53400;50.364;14.874;2023-02-11T02:16:50;42.58;;;20.33;;
66546;SDS011;53400;50.364;14.874;2023-02-11T02:19:23;38.00;;;18.52;;
66546;SDS011;53400;50.364;14.874;2023-02-11T02:25:16;35.00;;;18.75;;
66546;SDS011;53400;50.364;14.874;2023-02-11T02:27:54;39.38;;;19.80;;
66546;SDS011;53400;50.364;14.874;2023-02-11T02:30:45;43.15;;;19.80;;
66546;SDS011;53400;50.364;14.874;2023-02-11T02:33:33;44.13;;;21.52;;
66546;SDS011;53400;50.364;14.874;2023-02-11T02:36:12;41.63;;;18.77;;
66546;SDS011;53400;50.364;14.874;2023-02-11T02:38:43;42.33;;;18.77;;
66546;SDS011;53400;50.364;14.874;2023-02-11T02:43:43;42.75;;;18.73;;
66546;SDS011;53400;50.364;14.874;2023-02-11T02:46:13;40.10;;;18.50;;
66546;SDS011;53400;50.364;14.874;2023-02-11T02:51:12;37.10;;;18.90;;
66546;SDS011;53400;50.364;14.874;2023-02-11T02:53:49;52.80;;;30.13;;
66546;SDS011;53400;50.364;14.874;2023-02-11T02:56:24;38.95;;;21.08;;
66546;SDS011;53400;50.364;14.874;2023-02-11T02:59:00;41.92;;;20.23;;
66546;SDS011;53400;50.364;14.874;2023-02-11T03:01:49;41.25;;;20.15;;
66546;SDS011;53400;50.364;14.874;2023-02-11T03:04:24;42.92;;;20.98;;
66546;SDS011;53400;50.364;14.874;2023-02-11T03:06:57;46.83;;;19.10;;
66546;SDS011;53400;50.364;14.874;2023-02-11T03:09:30;39.85;;;19.60;;
66546;SDS011;53400;50.364;14.874;2023-02-11T03:12:00;46.75;;;20.83;;
66546;SDS011;53400;50.364;14.874;2023-02-11T03:14:28;42.13;;;20.98;;
66546;SDS011;53400;50.364;14.874;2023-02-11T03:16:57;39.45;;;19.83;;
66546;SDS011;53400;50.364;14.874;2023-02-11T03:19:27;51.20;;;23.40;;
66546;SDS011;53400;50.364;14.874;2023-02-11T03:21:56;85.40;;;32.72;;
66546;SDS011;53400;50.364;14.874;2023-02-11T03:24:23;62.42;;;28.33;;
66546;SDS011;53400;50.364;14.874;2023-02-11T03:26:53;53.17;;;24.20;;
66546;SDS011;53400;50.364;14.874;2023-02-11T03:29:23;50.65;;;24.85;;
66546;SDS011;53400;50.364;14.874;2023-02-11T03:32:03;51.35;;;24.13;;
66546;SDS011;53400;50.364;14.874;2023-02-11T03:34:39;55.42;;;26.13;;
66546;SDS011;53400;50.364;14.874;2023-02-11T03:37:09;46.93;;;23.63;;
66546;SDS011;53400;50.364;14.874;2023-02-11T03:39:39;44.10;;;22.42;;
66546;SDS011;53400;50.364;14.874;2023-02-11T03:42:09;45.47;;;23.52;;
66546;SDS011;53400;50.364;14.874;2023-02-11T03:44:39;47.22;;;24.30;;
66546;SDS011;53400;50.364;14.874;2023-02-11T03:47:09;44.40;;;22.17;;
66546;SDS011;53400;50.364;14.874;2023-02-11T03:49:39;55.30;;;26.73;;
66546;SDS011;53400;50.364;14.874;2023-02-11T03:52:07;47.10;;;23.33;;
66546;SDS011;53400;50.364;14.874;2023-02-11T03:54:35;50.85;;;24.15;;
66546;SDS011;53400;50.364;14.874;2023-02-11T03:57:05;48.40;;;23.63;;
66546;SDS011;53400;50.364;14.874;2023-02-11T03:59:31;49.28;;;23.67;;
66546;SDS011;53400;50.364;14.874;2023-02-11T04:02:14;40.57;;;19.87;;
66546;SDS011;53400;50.364;14.874;2023-02-11T04:04:41;43.78;;;21.05;;
66546;SDS011;53400;50.364;14.874;2023-02-11T04:07:08;46.40;;;22.85;;
66546;SDS011;53400;50.364;14.874;2023-02-11T04:09:35;38.40;;;18.48;;
66546;SDS011;53400;50.364;14.874;2023-02-11T04:12:01;57.72;;;33.25;;
66546;SDS011;53400;50.364;14.874;2023-02-11T04:14:27;46.95;;;23.25;;
66546;SDS011;53400;50.364;14.874;2023-02-11T04:16:53;47.28;;;22.13;;
66546;SDS011;53400;50.364;14.874;2023-02-11T04:19:19;41.70;;;21.40;;
66546;SDS011;53400;50.364;14.874;2023-02-11T04:21:46;40.97;;;19.92;;
66546;SDS011;53400;50.364;14.874;2023-02-11T04:24:12;44.33;;;19.65;;
66546;SDS011;53400;50.364;14.874;2023-02-11T04:26:38;45.60;;;21.13;;
66546;SDS011;53400;50.364;14.874;2023-02-11T04:29:04;46.00;;;21.20;;
66546;SDS011;53400;50.364;14.874;2023-02-11T04:31:30;45.15;;;22.75;;
66546;SDS011;53400;50.364;14.874;2023-02-11T04:33:55;40.60;;;19.23;;
66546;SDS011;53400;50.364;14.874;2023-02-11T04:36:21;49.83;;;22.15;;
66546;SDS011;53400;50.364;14.874;2023-02-11T04:38:48;39.33;;;20.20;;
66546;SDS011;53400;50.364;14.874;2023-02-11T04:41:14;45.53;;;20.92;;
66546;SDS011;53400;50.364;14.874;2023-02-11T04:43:40;46.22;;;21.65;;
66546;SDS011;53400;50.364;14.874;2023-02-11T04:46:06;47.45;;;22.55;;
66546;SDS011;53400;50.364;14.874;2023-02-11T04:48:32;47.28;;;22.73;;
66546;SDS011;53400;50.364;14.874;2023-02-11T04:50:59;44.92;;;22.10;;
66546;SDS011;53400;50.364;14.874;2023-02-11T04:53:25;46.08;;;23.08;;
66546;SDS011;53400;50.364;14.874;2023-02-11T04:55:53;42.83;;;21.05;;
66546;SDS011;53400;50.364;14.874;2023-02-11T04:58:18;46.30;;;22.73;;
66546;SDS011;53400;50.364;14.874;2023-02-11T05:00:45;44.58;;;22.13;;
66546;SDS011;53400;50.364;14.874;2023-02-11T05:03:11;40.88;;;21.63;;
66546;SDS011;53400;50.364;14.874;2023-02-11T05:05:37;42.92;;;21.52;;
66546;SDS011;53400;50.364;14.874;2023-02-11T05:08:04;40.35;;;19.48;;
66546;SDS011;53400;50.364;14.874;2023-02-11T05:10:31;42.58;;;19.65;;
66546;SDS011;53400;50.364;14.874;2023-02-11T05:12:58;49.92;;;24.17;;
66546;SDS011;53400;50.364;14.874;2023-02-11T05:15:24;46.83;;;22.83;;
66546;SDS011;53400;50.364;14.874;2023-02-11T05:17:50;44.45;;;20.92;;
66546;SDS011;53400;50.364;14.874;2023-02-11T05:20:16;49.92;;;23.83;;
66546;SDS011;53400;50.364;14.874;2023-02-11T05:22:42;45.47;;;21.02;;
66546;SDS011;53400;50.364;14.874;2023-02-11T05:25:08;29.30;;;15.43;;
66546;SDS011;53400;50.364;14.874;2023-02-11T05:27:34;44.15;;;23.20;;
66546;SDS011;53400;50.364;14.874;2023-02-11T05:30:02;46.63;;;21.92;;
66546;SDS011;53400;50.364;14.874;2023-02-11T05:32:28;49.95;;;23.08;;
66546;SDS011;53400;50.364;14.874;2023-02-11T05:34:54;47.30;;;22.00;;
66546;SDS011;53400;50.364;14.874;2023-02-11T05:37:20;43.28;;;22.15;;
66546;SDS011;53400;50.364;14.874;2023-02-11T05:39:47;44.08;;;21.73;;
66546;SDS011;53400;50.364;14.874;2023-02-11T05:42:12;45.28;;;22.08;;
66546;SDS011;53400;50.364;14.874;2023-02-11T05:44:38;48.75;;;22.95;;
66546;SDS011;53400;50.364;14.874;2023-02-11T05:47:05;42.85;;;21.33;;
66546;SDS011;53400;50.364;14.874;2023-02-11T05:49:33;43.67;;;22.52;;
66546;SDS011;53400;50.364;14.874;2023-02-11T05:51:59;42.25;;;20.17;;
66546;SDS011;53400;50.364;14.874;2023-02-11T05:54:25;40.05;;;19.98;;
66546;SDS011;53400;50.364;14.874;2023-02-11T05:56:51;47.55;;;22.85;;
66546;SDS011;53400;50.364;14.874;2023-02-11T05:59:17;37.40;;;17.60;;
66546;SDS011;53400;50.364;14.874;2023-02-11T06:01:43;44.63;;;21.05;;
66546;SDS011;53400;50.364;14.874;2023-02-11T06:04:10;46.22;;;22.80;;
66546;SDS011;53400;50.364;14.874;2023-02-11T06:06:36;48.83;;;23.73;;
66546;SDS011;53400;50.364;14.874;2023-02-11T06:09:03;41.40;;;18.60;;
66546;SDS011;53400;50.364;14.874;2023-02-11T06:11:29;41.75;;;21.60;;
66546;SDS011;53400;50.364;14.874;2023-02-11T06:13:55;45.13;;;21.00;;
66546;SDS011;53400;50.364;14.874;2023-02-11T06:16:21;41.08;;;22.30;;
66546;SDS011;53400;50.364;14.874;2023-02-11T06:18:47;42.05;;;21.42;;
66546;SDS011;53400;50.364;14.874;2023-02-11T06:21:14;38.10;;;20.25;;
66546;SDS011;53400;50.364;14.874;2023-02-11T06:23:40;48.28;;;23.73;;
66546;SDS011;53400;50.364;14.874;2023-02-11T06:26:07;44.85;;;21.48;;
66546;SDS011;53400;50.364;14.874;2023-02-11T06:28:40;42.15;;;20.08;;
66546;SDS011;53400;50.364;14.874;2023-02-11T06:31:06;42.45;;;20.38;;
66546;SDS011;53400;50.364;14.874;2023-02-11T06:33:32;44.95;;;21.70;;
66546;SDS011;53400;50.364;14.874;2023-02-11T06:35:58;36.40;;;19.30;;
66546;SDS011;53400;50.364;14.874;2023-02-11T06:38:26;42.65;;;20.33;;
66546;SDS011;53400;50.364;14.874;2023-02-11T06:40:52;47.85;;;23.90;;
66546;SDS011;53400;50.364;14.874;2023-02-11T06:43:18;46.42;;;21.38;;
66546;SDS011;53400;50.364;14.874;2023-02-11T06:45:44;43.78;;;21.30;;
66546;SDS011;53400;50.364;14.874;2023-02-11T06:48:10;39.30;;;19.00;;
66546;SDS011;53400;50.364;14.874;2023-02-11T06:50:36;49.03;;;24.08;;
66546;SDS011;53400;50.364;14.874;2023-02-11T06:53:02;40.67;;;19.65;;
66546;SDS011;53400;50.364;14.874;2023-02-11T06:55:29;43.55;;;20.45;;
66546;SDS011;53400;50.364;14.874;2023-02-11T06:57:56;42.38;;;21.58;;
66546;SDS011;53400;50.364;14.874;2023-02-11T07:00:21;43.20;;;21.33;;
66546;SDS011;53400;50.364;14.874;2023-02-11T07:02:47;45.63;;;22.92;;
66546;SDS011;53400;50.364;14.874;2023-02-11T07:05:14;43.97;;;21.65;;
66546;SDS011;53400;50.364;14.874;2023-02-11T07:07:40;44.03;;;21.52;;
66546;SDS011;53400;50.364;14.874;2023-02-11T07:10:06;51.75;;;21.40;;
66546;SDS011;53400;50.364;14.874;2023-02-11T07:12:34;42.58;;;21.35;;
66546;SDS011;53400;50.364;14.874;2023-02-11T07:15:00;42.20;;;20.05;;
66546;SDS011;53400;50.364;14.874;2023-02-11T07:17:26;40.35;;;20.80;;
66546;SDS011;53400;50.364;14.874;2023-02-11T07:19:52;45.00;;;20.90;;
66546;SDS011;53400;50.364;14.874;2023-02-11T07:22:18;41.20;;;20.88;;
66546;SDS011;53400;50.364;14.874;2023-02-11T07:24:44;39.90;;;19.25;;
66546;SDS011;53400;50.364;14.874;2023-02-11T07:27:10;39.08;;;19.67;;
66546;SDS011;53400;50.364;14.874;2023-02-11T07:29:37;40.30;;;20.35;;
66546;SDS011;53400;50.364;14.874;2023-02-11T07:32:04;41.00;;;21.05;;
66546;SDS011;53400;50.364;14.874;2023-02-11T07:34:30;44.83;;;21.42;;
66546;SDS011;53400;50.364;14.874;2023-02-11T07:36:56;40.90;;;18.90;;
66546;SDS011;53400;50.364;14.874;2023-02-11T07:39:22;42.33;;;19.60;;
66546;SDS011;53400;50.364;14.874;2023-02-11T07:41:51;40.42;;;20.25;;
66546;SDS011;53400;50.364;14.874;2023-02-11T07:44:17;39.60;;;20.48;;
66546;SDS011;53400;50.364;14.874;2023-02-11T07:46:45;39.35;;;20.05;;
66546;SDS011;53400;50.364;14.874;2023-02-11T07:49:13;41.83;;;20.65;;
66546;SDS011;53400;50.364;14.874;2023-02-11T07:51:39;33.75;;;18.60;;
66546;SDS011;53400;50.364;14.874;2023-02-11T07:54:05;40.88;;;19.65;;
66546;SDS011;53400;50.364;14.874;2023-02-11T07:56:31;42.78;;;20.73;;
66546;SDS011;53400;50.364;14.874;2023-02-11T07:58:59;50.42;;;20.95;;
66546;SDS011;53400;50.364;14.874;2023-02-11T08:01:27;38.95;;;19.00;;
66546;SDS011;53400;50.364;14.874;2023-02-11T08:03:57;35.00;;;17.95;;
66546;SDS011;53400;50.364;14.874;2023-02-11T08:06:25;39.25;;;20.08;;
66546;SDS011;53400;50.364;14.874;2023-02-11T08:08:53;40.40;;;19.58;;
66546;SDS011;53400;50.364;14.874;2023-02-11T08:11:20;41.30;;;19.90;;
66546;SDS011;53400;50.364;14.874;2023-02-11T08:13:47;42.33;;;19.75;;
66546;SDS011;53400;50.364;14.874;2023-02-11T08:16:16;42.55;;;20.58;;
66546;SDS011;53400;50.364;14.874;2023-02-11T08:18:43;40.03;;;19.85;;
66546;SDS011;53400;50.364;14.874;2023-02-11T08:21:10;37.72;;;19.80;;
66546;SDS011;53400;50.364;14.874;2023-02-11T08:23:37;35.97;;;19.38;;
66546;SDS011;53400;50.364;14.874;2023-02-11T08:26:05;38.10;;;19.17;;
66546;SDS011;53400;50.364;14.874;2023-02-11T08:28:34;37.22;;;19.42;;
66546;SDS011;53400;50.364;14.874;2023-02-11T08:31:03;35.47;;;19.23;;
66546;SDS011;53400;50.364;14.874;2023-02-11T08:33:30;37.35;;;19.55;;
66546;SDS011;53400;50.364;14.874;2023-02-11T08:35:56;33.78;;;19.50;;
66546;SDS011;53400;50.364;14.874;2023-02-11T08:38:23;36.70;;;19.35;;
66546;SDS011;53400;50.364;14.874;2023-02-11T08:40:50;36.17;;;18.35;;
66546;SDS011;53400;50.364;14.874;2023-02-11T08:43:16;37.03;;;18.77;;
66546;SDS011;53400;50.364;14.874;2023-02-11T08:45:42;39.50;;;21.13;;
66546;SDS011;53400;50.364;14.874;2023-02-11T08:48:08;35.80;;;19.38;;
66546;SDS011;53400;50.364;14.874;2023-02-11T08:50:37;36.67;;;18.75;;
66546;SDS011;53400;50.364;14.874;2023-02-11T08:53:03;36.35;;;19.15;;
66546;SDS011;53400;50.364;14.874;2023-02-11T08:55:30;39.10;;;18.38;;
66546;SDS011;53400;50.364;14.874;2023-02-11T08:57:56;37.83;;;18.65;;
66546;SDS011;53400;50.364;14.874;2023-02-11T09:00:22;39.40;;;20.48;;
66546;SDS011;53400;50.364;14.874;2023-02-11T09:02:48;35.83;;;17.88;;
66546;SDS011;53400;50.364;14.874;2023-02-11T09:05:15;35.05;;;17.85;;
66546;SDS011;53400;50.364;14.874;2023-02-11T09:07:41;37.88;;;20.38;;
66546;SDS011;53400;50.364;14.874;2023-02-11T09:10:07;37.40;;;19.08;;
66546;SDS011;53400;50.364;14.874;2023-02-11T09:12:34;34.55;;;18.50;;
66546;SDS011;53400;50.364;14.874;2023-02-11T09:15:00;33.95;;;19.17;;
66546;SDS011;53400;50.364;14.874;2023-02-11T09:17:26;38.60;;;19.77;;
66546;SDS011;53400;50.364;14.874;2023-02-11T09:19:52;38.85;;;20.02;;
66546;SDS011;53400;50.364;14.874;2023-02-11T09:22:18;41.33;;;22.55;;
66546;SDS011;53400;50.364;14.874;2023-02-11T09:24:44;44.05;;;22.35;;
66546;SDS011;53400;50.364;14.874;2023-02-11T09:27:10;38.42;;;19.17;;
66546;SDS011;53400;50.364;14.874;2023-02-11T09:32:04;37.05;;;17.92;;
66546;SDS011;53400;50.364;14.874;2023-02-11T09:34:30;34.38;;;16.60;;
66546;SDS011;53400;50.364;14.874;2023-02-11T09:36:56;35.05;;;17.40;;
66546;SDS011;53400;50.364;14.874;2023-02-11T09:39:22;30.42;;;17.00;;
66546;SDS011;53400;50.364;14.874;2023-02-11T09:42:06;33.22;;;16.55;;
66546;SDS011;53400;50.364;14.874;2023-02-11T09:44:45;27.45;;;15.15;;
66546;SDS011;53400;50.364;14.874;2023-02-11T09:47:17;34.25;;;16.42;;
66546;SDS011;53400;50.364;14.874;2023-02-11T09:49:50;30.38;;;16.30;;
66546;SDS011;53400;50.364;14.874;2023-02-11T09:52:23;27.92;;;13.75;;
66546;SDS011;53400;50.364;14.874;2023-02-11T09:55:02;32.28;;;16.13;;
66546;SDS011;53400;50.364;14.874;2023-02-11T09:57:30;33.25;;;16.65;;
66546;SDS011;53400;50.364;14.874;2023-02-11T09:59:59;35.28;;;16.42;;
66546;SDS011;53400;50.364;14.874;2023-02-11T10:02:28;33.58;;;16.80;;
66546;SDS011;53400;50.364;14.874;2023-02-11T10:05:12;32.65;;;15.77;;
66546;SDS011;53400;50.364;14.874;2023-02-11T10:07:54;27.95;;;15.20;;
66546;SDS011;53400;50.364;14.874;2023-02-11T10:10:34;31.60;;;15.57;;
66546;SDS011;53400;50.364;14.874;2023-02-11T10:15:53;25.52;;;13.13;;
66546;SDS011;53400;50.364;14.874;2023-02-11T10:18:32;26.40;;;13.88;;
66546;SDS011;53400;50.364;14.874;2023-02-11T10:21:12;29.75;;;16.13;;
66546;SDS011;53400;50.364;14.874;2023-02-11T10:23:45;35.05;;;16.10;;
66546;SDS011;53400;50.364;14.874;2023-02-11T10:26:16;25.73;;;13.18;;
66546;SDS011;53400;50.364;14.874;2023-02-11T10:28:44;31.30;;;15.80;;
66546;SDS011;53400;50.364;14.874;2023-02-11T10:31:14;30.60;;;14.25;;
66546;SDS011;53400;50.364;14.874;2023-02-11T10:33:43;31.30;;;16.17;;
66546;SDS011;53400;50.364;14.874;2023-02-11T10:36:15;30.63;;;15.55;;
66546;SDS011;53400;50.364;14.874;2023-02-11T10:38:42;25.85;;;13.07;;
66546;SDS011;53400;50.364;14.874;2023-02-11T10:41:09;27.90;;;14.52;;
66546;SDS011;53400;50.364;14.874;2023-02-11T10:43:38;26.88;;;13.15;;
66546;SDS011;53400;50.364;14.874;2023-02-11T10:46:09;25.02;;;13.02;;
66546;SDS011;53400;50.364;14.874;2023-02-11T10:48:42;28.88;;;16.10;;
66546;SDS011;53400;50.364;14.874;2023-02-11T10:51:14;23.35;;;10.40;;
66546;SDS011;53400;50.364;14.874;2023-02-11T10:53:43;27.60;;;13.57;;
66546;SDS011;53400;50.364;14.874;2023-02-11T10:56:11;27.75;;;13.15;;
66546;SDS011;53400;50.364;14.874;2023-02-11T10:58:46;30.25;;;15.98;;
66546;SDS011;53400;50.364;14.874;2023-02-11T11:01:23;26.10;;;12.70;;
66546;SDS011;53400;50.364;14.874;2023-02-11T11:04:03;33.40;;;12.88;;
66546;SDS011;53400;50.364;14.874;2023-02-11T11:06:31;23.10;;;11.38;;
66546;SDS011;53400;50.364;14.874;2023-02-11T11:08:59;27.33;;;13.98;;
66546;SDS011;53400;50.364;14.874;2023-02-11T11:11:26;33.17;;;15.95;;
66546;SDS011;53400;50.364;14.874;2023-02-11T11:13:54;26.92;;;14.35;;
66546;SDS011;53400;50.364;14.874;2023-02-11T11:16:25;30.45;;;14.88;;
66546;SDS011;53400;50.364;14.874;2023-02-11T11:18:53;31.67;;;14.90;;
66546;SDS011;53400;50.364;14.874;2023-02-11T11:21:47;31.27;;;15.05;;
66546;SDS011;53400;50.364;14.874;2023-02-11T11:24:16;29.88;;;14.88;;
66546;SDS011;53400;50.364;14.874;2023-02-11T11:26:46;28.92;;;14.30;;
66546;SDS011;53400;50.364;14.874;2023-02-11T11:29:15;29.55;;;15.80;;
66546;SDS011;53400;50.364;14.874;2023-02-11T11:31:47;33.08;;;14.68;;
66546;SDS011;53400;50.364;14.874;2023-02-11T11:34:30;32.08;;;16.50;;
66546;SDS011;53400;50.364;14.874;2023-02-11T11:36:58;32.08;;;15.23;;
66546;SDS011;53400;50.364;14.874;2023-02-11T11:39:27;32.55;;;15.45;;
66546;SDS011;53400;50.364;14.874;2023-02-11T11:41:56;33.05;;;16.33;;
66546;SDS011;53400;50.364;14.874;2023-02-11T11:44:27;31.17;;;16.65;;
66546;SDS011;53400;50.364;14.874;2023-02-11T11:49:55;28.75;;;14.63;;
66546;SDS011;53400;50.364;14.874;2023-02-11T11:52:45;28.40;;;13.52;;
66546;SDS011;53400;50.364;14.874;2023-02-11T11:55:19;20.25;;;9.80;;
66546;SDS011;53400;50.364;14.874;2023-02-11T11:57:49;30.13;;;14.82;;
66546;SDS011;53400;50.364;14.874;2023-02-11T12:00:16;28.70;;;13.82;;
66546;SDS011;53400;50.364;14.874;2023-02-11T12:02:57;22.33;;;11.13;;
66546;SDS011;53400;50.364;14.874;2023-02-11T12:05:35;32.17;;;15.27;;
66546;SDS011;53400;50.364;14.874;2023-02-11T12:08:09;22.23;;;11.75;;
66546;SDS011;53400;50.364;14.874;2023-02-11T12:10:52;31.02;;;14.43;;
66546;SDS011;53400;50.364;14.874;2023-02-11T12:13:27;29.88;;;15.25;;
66546;SDS011;53400;50.364;14.874;2023-02-11T12:16:04;27.33;;;13.55;;
66546;SDS011;53400;50.364;14.874;2023-02-11T12:18:45;30.67;;;16.75;;
66546;SDS011;53400;50.364;14.874;2023-02-11T12:21:29;29.63;;;15.77;;
66546;SDS011;53400;50.364;14.874;2023-02-11T12:24:05;28.55;;;15.52;;
66546;SDS011;53400;50.364;14.874;2023-02-11T12:26:43;27.40;;;15.23;;
66546;SDS011;53400;50.364;14.874;2023-02-11T12:29:16;30.70;;;13.65;;
66546;SDS011;53400;50.364;14.874;2023-02-11T12:31:55;26.77;;;13.85;;
66546;SDS011;53400;50.364;14.874;2023-02-11T12:34:38;30.55;;;14.50;;
66546;SDS011;53400;50.364;14.874;2023-02-11T12:37:17;27.83;;;15.48;;
66546;SDS011;53400;50.364;14.874;2023-02-11T12:39:53;31.38;;;15.02;;
66546;SDS011;53400;50.364;14.874;2023-02-11T12:42:32;26.38;;;14.77;;
66546;SDS011;53400;50.364;14.874;2023-02-11T12:45:28;25.85;;;13.00;;
66546;SDS011;53400;50.364;14.874;2023-02-11T12:51:04;24.98;;;13.00;;
66546;SDS011;53400;50.364;14.874;2023-02-11T12:53:45;27.13;;;14.25;;
66546;SDS011;53400;50.364;14.874;2023-02-11T12:56:20;28.60;;;14.93;;
66546;SDS011;53400;50.364;14.874;2023-02-11T12:58:51;24.50;;;12.85;;
66546;SDS011;53400;50.364;14.874;2023-02-11T13:01:22;24.23;;;13.02;;
66546;SDS011;53400;50.364;14.874;2023-02-11T13:06:23;22.75;;;12.20;;
66546;SDS011;53400;50.364;14.874;2023-02-11T13:11:26;24.50;;;13.07;;
66546;SDS011;53400;50.364;14.874;2023-02-11T13:13:55;24.40;;;12.05;;
66546;SDS011;53400;50.364;14.874;2023-02-11T13:16:28;25.30;;;12.40;;
66546;SDS011;53400;50.364;14.874;2023-02-11T13:19:00;24.48;;;13.02;;
66546;SDS011;53400;50.364;14.874;2023-02-11T13:21:44;24.42;;;13.93;;
66546;SDS011;53400;50.364;14.874;2023-02-11T13:24:17;29.63;;;13.48;;
66546;SDS011;53400;50.364;14.874;2023-02-11T13:26:51;24.98;;;12.60;;
66546;SDS011;53400;50.364;14.874;2023-02-11T13:29:29;24.52;;;12.68;;
66546;SDS011;53400;50.364;14.874;2023-02-11T13:32:05;25.88;;;12.18;;
66546;SDS011;53400;50.364;14.874;2023-02-11T13:34:55;21.80;;;12.23;;
66546;SDS011;53400;50.364;14.874;2023-02-11T13:37:24;24.15;;;12.05;;
66546;SDS011;53400;50.364;14.874;2023-02-11T13:39:56;19.25;;;11.07;;
66546;SDS011;53400;50.364;14.874;2023-02-11T13:42:25;25.48;;;12.98;;
66546;SDS011;53400;50.364;14.874;2023-02-11T13:44:51;18.17;;;10.40;;
66546;SDS011;53400;50.364;14.874;2023-02-11T13:47:23;24.35;;;12.15;;
66546;SDS011;53400;50.364;14.874;2023-02-11T13:49:53;25.02;;;11.85;;
66546;SDS011;53400;50.364;14.874;2023-02-11T13:52:21;23.67;;;12.65;;
66546;SDS011;53400;50.364;14.874;2023-02-11T13:54:51;19.90;;;11.30;;
66546;SDS011;53400;50.364;14.874;2023-02-11T13:57:38;19.63;;;11.07;;
66546;SDS011;53400;50.364;14.874;2023-02-11T14:03:24;21.27;;;10.68;;
66546;SDS011;53400;50.364;14.874;2023-02-11T14:06:17;21.42;;;10.95;;
66546;SDS011;53400;50.364;14.874;2023-02-11T14:14:59;22.23;;;10.98;;
66546;SDS011;53400;50.364;14.874;2023-02-11T14:17:27;18.58;;;9.73;;
66546;SDS011;53400;50.364;14.874;2023-02-11T14:19:57;19.10;;;10.95;;
66546;SDS011;53400;50.364;14.874;2023-02-11T14:22:25;20.55;;;11.07;;
66546;SDS011;53400;50.364;14.874;2023-02-11T14:24:56;18.50;;;10.93;;
66546;SDS011;53400;50.364;14.874;2023-02-11T14:27:39;20.67;;;10.98;;
66546;SDS011;53400;50.364;14.874;2023-02-11T14:36:04;23.48;;;12.43;;
66546;SDS011;53400;50.364;14.874;2023-02-11T14:38:44;21.38;;;10.88;;
66546;SDS011;53400;50.364;14.874;2023-02-11T14:41:21;21.35;;;11.63;;
66546;SDS011;53400;50.364;14.874;2023-02-11T14:43:50;20.80;;;12.05;;
66546;SDS011;53400;50.364;14.874;2023-02-11T14:46:18;20.58;;;10.27;;
66546;SDS011;53400;50.364;14.874;2023-02-11T14:48:45;19.73;;;10.95;;
66546;SDS011;53400;50.364;14.874;2023-02-11T14:51:14;21.55;;;11.80;;
66546;SDS011;53400;50.364;14.874;2023-02-11T14:53:44;20.17;;;11.10;;
66546;SDS011;53400;50.364;14.874;2023-02-11T14:56:17;19.88;;;11.30;;
66546;SDS011;53400;50.364;14.874;2023-02-11T14:58:46;32.35;;;13.45;;
66546;SDS011;53400;50.364;14.874;2023-02-11T15:01:24;22.20;;;12.13;;
66546;SDS011;53400;50.364;14.874;2023-02-11T15:03:56;23.23;;;11.73;;